sensor_id;sensor_type;location;lat;lon;timestamp;pressure;altitude;pressure_sealevel;temperature;humidity
69306;BME280;56427;51.580;4.656;2023-04-08T00:01:00;102283.13;;;7.41;100.00
69306;BME280;56427;51.580;4.656;2023-04-08T00:03:25;102276.16;;;7.24;100.00
69306;BME280;56427;51.580;4.656;2023-04-08T00:05:51;102285.44;;;7.28;100.00
69306;BME280;56427;51.580;4.656;2023-04-08T00:08:16;102289.97;;;7.23;100.00
69306;BME280;56427;51.580;4.656;2023-04-08T00:10:42;102283.63;;;7.30;100.00
69306;BME280;56427;51.580;4.656;2023-04-08T00:13:07;102281.38;;;7.41;100.00
69306;BME280;56427;51.580;4.656;2023-04-08T00:15:33;102279.78;;;7.39;100.00
69306;BME280;56427;51.580;4.656;2023-04-08T00:17:58;102282.72;;;7.31;100.00
69306;BME280;56427;51.580;4.656;2023-04-08T00:20:24;102275.31;;;7.23;100.00
69306;BME280;56427;51.580;4.656;2023-04-08T00:22:49;102273.84;;;7.17;100.00
69306;BME280;56427;51.580;4.656;2023-04-08T00:25:14;102272.50;;;7.09;100.00
69306;BME280;56427;51.580;4.656;2023-04-08T00:27:40;102264.63;;;7.12;100.00
69306;BME280;56427;51.580;4.656;2023-04-08T00:30:06;102270.78;;;7.09;100.00
69306;BME280;56427;51.580;4.656;2023-04-08T00:32:31;102268.00;;;7.14;100.00
69306;BME280;56427;51.580;4.656;2023-04-08T00:34:57;102271.75;;;7.26;100.00
69306;BME280;56427;51.580;4.656;2023-04-08T00:37:23;102271.97;;;7.21;100.00
69306;BME280;56427;51.580;4.656;2023-04-08T00:39:49;102276.06;;;7.25;100.00
69306;BME280;56427;51.580;4.656;2023-04-08T00:42:15;102275.88;;;7.30;100.00
69306;BME280;56427;51.580;4.656;2023-04-08T00:44:41;102286.75;;;7.36;100.00
69306;BME280;56427;51.580;4.656;2023-04-08T00:47:06;102286.06;;;7.33;100.00
69306;BME280;56427;51.580;4.656;2023-04-08T00:49:36;102274.91;;;7.32;100.00
69306;BME280;56427;51.580;4.656;2023-04-08T00:52:01;102286.75;;;7.36;100.00
69306;BME280;56427;51.580;4.656;2023-04-08T00:54:26;102288.50;;;7.36;100.00
69306;BME280;56427;51.580;4.656;2023-04-08T00:56:52;102278.25;;;7.71;100.00
69306;BME280;56427;51.580;4.656;2023-04-08T00:59:17;102290.91;;;7.58;100.00
69306;BME280;56427;51.580;4.656;2023-04-08T01:01:58;102284.63;;;7.64;100.00
69306;BME280;56427;51.580;4.656;2023-04-08T01:07:00;102283.59;;;7.49;100.00
69306;BME280;56427;51.580;4.656;2023-04-08T01:09:31;102290.13;;;7.39;100.00
69306;BME280;56427;51.580;4.656;2023-04-08T01:11:59;102284.78;;;7.42;100.00
69306;BME280;56427;51.580;4.656;2023-04-08T01:14:29;102283.88;;;7.43;100.00
69306;BME280;56427;51.580;4.656;2023-04-08T01:16:57;102282.44;;;7.37;100.00
69306;BME280;56427;51.580;4.656;2023-04-08T01:19:33;102282.56;;;7.34;100.00
69306;BME280;56427;51.580;4.656;2023-04-08T01:22:28;102284.78;;;7.42;100.00
69306;BME280;56427;51.580;4.656;2023-04-08T01:25:15;102290.94;;;7.76;100.00
69306;BME280;56427;51.580;4.656;2023-04-08T01:27:42;102288.19;;;7.61;100.00
69306;BME280;56427;51.580;4.656;2023-04-08T01:30:08;102293.28;;;7.63;100.00
69306;BME280;56427;51.580;4.656;2023-04-08T01:32:35;102295.50;;;7.70;100.00
69306;BME280;56427;51.580;4.656;2023-04-08T01:35:01;102298.56;;;7.79;100.00
69306;BME280;56427;51.580;4.656;2023-04-08T01:37:28;102301.22;;;7.77;100.00
69306;BME280;56427;51.580;4.656;2023-04-08T01:39:55;102298.66;;;7.95;100.00
69306;BME280;56427;51.580;4.656;2023-04-08T01:42:23;102295.53;;;7.88;100.00
69306;BME280;56427;51.580;4.656;2023-04-08T01:44:51;102290.06;;;7.77;100.00
69306;BME280;56427;51.580;4.656;2023-04-08T01:47:17;102294.44;;;7.74;100.00
69306;BME280;56427;51.580;4.656;2023-04-08T01:49:43;102304.00;;;7.72;100.00
69306;BME280;56427;51.580;4.656;2023-04-08T01:52:10;102297.19;;;7.71;100.00
69306;BME280;56427;51.580;4.656;2023-04-08T01:54:36;102300.81;;;7.67;100.00
69306;BME280;56427;51.580;4.656;2023-04-08T01:57:04;102304.09;;;7.71;100.00
69306;BME280;56427;51.580;4.656;2023-04-08T01:59:34;102300.59;;;7.72;100.00
69306;BME280;56427;51.580;4.656;2023-04-08T02:02:01;102310.59;;;7.80;100.00
69306;BME280;56427;51.580;4.656;2023-04-08T02:04:29;102305.56;;;7.77;100.00
69306;BME280;56427;51.580;4.656;2023-04-08T02:06:55;102304.00;;;7.72;100.00
69306;BME280;56427;51.580;4.656;2023-04-08T02:09:20;102301.66;;;7.68;100.00
69306;BME280;56427;51.580;4.656;2023-04-08T02:11:46;102304.00;;;7.72;100.00
69306;BME280;56427;51.580;4.656;2023-04-08T02:14:11;102307.53;;;7.71;100.00
69306;BME280;56427;51.580;4.656;2023-04-08T02:16:42;102305.41;;;7.80;100.00
69306;BME280;56427;51.580;4.656;2023-04-08T02:19:14;102304.63;;;7.78;100.00
69306;BME280;56427;51.580;4.656;2023-04-08T02:21:48;102307.66;;;7.68;100.00
69306;BME280;56427;51.580;4.656;2023-04-08T02:24:16;102306.66;;;7.71;100.00
69306;BME280;56427;51.580;4.656;2023-04-08T02:26:43;102303.47;;;7.66;100.00
69306;BME280;56427;51.580;4.656;2023-04-08T02:29:12;102299.44;;;7.60;100.00
69306;BME280;56427;51.580;4.656;2023-04-08T02:31:41;102306.88;;;7.66;100.00
69306;BME280;56427;51.580;4.656;2023-04-08T02:34:09;102305.22;;;7.65;100.00
69306;BME280;56427;51.580;4.656;2023-04-08T02:36:35;102306.06;;;7.66;100.00
69306;BME280;56427;51.580;4.656;2023-04-08T02:39:02;102301.97;;;7.62;100.00
69306;BME280;56427;51.580;4.656;2023-04-08T02:41:28;102304.88;;;7.54;100.00
69306;BME280;56427;51.580;4.656;2023-04-08T02:43:54;102310.59;;;7.61;100.00
69306;BME280;56427;51.580;4.656;2023-04-08T02:46:20;102314.00;;;7.61;100.00
69306;BME280;56427;51.580;4.656;2023-04-08T02:48:45;102306.88;;;7.66;100.00
69306;BME280;56427;51.580;4.656;2023-04-08T02:51:11;102304.63;;;7.60;100.00
69306;BME280;56427;51.580;4.656;2023-04-08T02:53:36;102300.47;;;7.56;100.00
69306;BME280;56427;51.580;4.656;2023-04-08T02:56:01;102305.66;;;7.56;100.00
69306;BME280;56427;51.580;4.656;2023-04-08T02:58:27;102314.81;;;7.63;100.00
69306;BME280;56427;51.580;4.656;2023-04-08T03:00:52;102313.81;;;7.66;100.00
69306;BME280;56427;51.580;4.656;2023-04-08T03:03:17;102308.84;;;7.61;100.00
69306;BME280;56427;51.580;4.656;2023-04-08T03:05:43;102318.63;;;7.54;100.00
69306;BME280;56427;51.580;4.656;2023-04-08T03:08:08;102313.59;;;7.51;100.00
69306;BME280;56427;51.580;4.656;2023-04-08T03:10:34;102323.13;;;7.51;100.00
69306;BME280;56427;51.580;4.656;2023-04-08T03:12:59;102317.47;;;7.62;100.00
69306;BME280;56427;51.580;4.656;2023-04-08T03:15:27;102327.31;;;7.53;100.00
69306;BME280;56427;51.580;4.656;2023-04-08T03:17:53;102330.66;;;7.55;100.00
69306;BME280;56427;51.580;4.656;2023-04-08T03:20:18;102325.41;;;7.57;100.00
69306;BME280;56427;51.580;4.656;2023-04-08T03:22:43;102325.97;;;7.64;100.00
69306;BME280;56427;51.580;4.656;2023-04-08T03:25:09;102318.22;;;7.64;100.00
69306;BME280;56427;51.580;4.656;2023-04-08T03:27:36;102330.13;;;7.66;100.00
69306;BME280;56427;51.580;4.656;2023-04-08T03:30:02;102331.00;;;7.67;100.00
69306;BME280;56427;51.580;4.656;2023-04-08T03:32:27;102324.91;;;7.68;100.00
69306;BME280;56427;51.580;4.656;2023-04-08T03:34:53;102328.28;;;7.70;100.00
69306;BME280;56427;51.580;4.656;2023-04-08T03:37:18;102328.41;;;7.67;100.00
69306;BME280;56427;51.580;4.656;2023-04-08T03:39:43;102331.75;;;7.69;100.00
69306;BME280;56427;51.580;4.656;2023-04-08T03:42:09;102339.66;;;7.66;100.00
69306;BME280;56427;51.580;4.656;2023-04-08T03:44:34;102341.34;;;7.67;100.00
69306;BME280;56427;51.580;4.656;2023-04-08T03:46:59;102340.16;;;7.55;100.00
69306;BME280;56427;51.580;4.656;2023-04-08T03:49:25;102343.84;;;7.49;100.00
69306;BME280;56427;51.580;4.656;2023-04-08T03:51:50;102345.53;;;7.50;100.00
69306;BME280;56427;51.580;4.656;2023-04-08T03:54:15;102335.81;;;7.55;100.00
69306;BME280;56427;51.580;4.656;2023-04-08T03:56:41;102347.97;;;7.53;100.00
69306;BME280;56427;51.580;4.656;2023-04-08T03:59:06;102347.06;;;7.54;100.00
69306;BME280;56427;51.580;4.656;2023-04-08T04:01:32;102346.28;;;7.52;100.00
69306;BME280;56427;51.580;4.656;2023-04-08T04:03:57;102353.78;;;7.59;100.00
69306;BME280;56427;51.580;4.656;2023-04-08T04:06:22;102352.09;;;7.58;100.00
69306;BME280;56427;51.580;4.656;2023-04-08T04:08:48;102354.59;;;7.59;100.00
69306;BME280;56427;51.580;4.656;2023-04-08T04:11:14;102342.81;;;7.53;100.00
69306;BME280;56427;51.580;4.656;2023-04-08T04:13:40;102343.72;;;7.52;100.00
69306;BME280;56427;51.580;4.656;2023-04-08T04:16:05;102352.22;;;7.54;100.00
69306;BME280;56427;51.580;4.656;2023-04-08T04:18:30;102355.09;;;7.48;100.00
69306;BME280;56427;51.580;4.656;2023-04-08T04:20:56;102353.84;;;7.38;100.00
69306;BME280;56427;51.580;4.656;2023-04-08T04:23:21;102365.09;;;7.37;100.00
69306;BME280;56427;51.580;4.656;2023-04-08T04:25:48;102359.63;;;7.43;100.00
69306;BME280;56427;51.580;4.656;2023-04-08T04:28:14;102367.44;;;7.42;100.00
69306;BME280;56427;51.580;4.656;2023-04-08T04:30:39;102364.78;;;7.43;100.00
69306;BME280;56427;51.580;4.656;2023-04-08T04:33:05;102365.91;;;7.37;100.00
69306;BME280;56427;51.580;4.656;2023-04-08T04:35:31;102371.09;;;7.37;100.00
69306;BME280;56427;51.580;4.656;2023-04-08T04:37:56;102367.13;;;7.30;100.00
69306;BME280;56427;51.580;4.656;2023-04-08T04:40:21;102366.19;;;7.31;100.00
69306;BME280;56427;51.580;4.656;2023-04-08T04:42:47;102371.16;;;7.36;100.00
69306;BME280;56427;51.580;4.656;2023-04-08T04:45:12;102371.97;;;7.36;100.00
69306;BME280;56427;51.580;4.656;2023-04-08T04:47:38;102373.88;;;7.33;100.00
69306;BME280;56427;51.580;4.656;2023-04-08T04:50:04;102375.50;;;7.35;100.00
69306;BME280;56427;51.580;4.656;2023-04-08T04:52:30;102377.22;;;7.35;100.00
69306;BME280;56427;51.580;4.656;2023-04-08T04:54:56;102366.69;;;7.40;100.00
69306;BME280;56427;51.580;4.656;2023-04-08T04:57:25;102368.78;;;7.31;100.00
69306;BME280;56427;51.580;4.656;2023-04-08T04:59:50;102357.06;;;7.24;100.00
69306;BME280;56427;51.580;4.656;2023-04-08T05:02:16;102365.75;;;7.22;100.00
69306;BME280;56427;51.580;4.656;2023-04-08T05:04:41;102366.63;;;7.22;100.00
69306;BME280;56427;51.580;4.656;2023-04-08T05:07:06;102368.00;;;7.29;100.00
69306;BME280;56427;51.580;4.656;2023-04-08T05:09:32;102360.31;;;7.28;100.00
69306;BME280;56427;51.580;4.656;2023-04-08T05:11:57;102373.44;;;7.23;100.00
69306;BME280;56427;51.580;4.656;2023-04-08T05:14:22;102374.28;;;7.24;100.00
69306;BME280;56427;51.580;4.656;2023-04-08T05:16:48;102376.44;;;7.33;100.00
69306;BME280;56427;51.580;4.656;2023-04-08T05:19:13;102384.41;;;7.47;100.00
69306;BME280;56427;51.580;4.656;2023-04-08T05:21:42;102386.94;;;7.49;100.00
69306;BME280;56427;51.580;4.656;2023-04-08T05:24:07;102392.41;;;7.62;100.00
69306;BME280;56427;51.580;4.656;2023-04-08T05:26:32;102389.56;;;7.66;100.00
69306;BME280;56427;51.580;4.656;2023-04-08T05:28:58;102384.84;;;7.57;100.00
69306;BME280;56427;51.580;4.656;2023-04-08T05:31:23;102389.88;;;7.60;100.00
69306;BME280;56427;51.580;4.656;2023-04-08T05:33:49;102397.63;;;7.60;100.00
69306;BME280;56427;51.580;4.656;2023-04-08T05:36:14;102397.06;;;7.72;100.00
69306;BME280;56427;51.580;4.656;2023-04-08T05:38:40;102393.78;;;7.69;100.00
69306;BME280;56427;51.580;4.656;2023-04-08T05:41:08;102399.75;;;8.25;100.00
69306;BME280;56427;51.580;4.656;2023-04-08T05:43:34;102403.84;;;8.11;100.00
69306;BME280;56427;51.580;4.656;2023-04-08T05:45:59;102413.38;;;8.11;100.00
69306;BME280;56427;51.580;4.656;2023-04-08T05:48:24;102405.22;;;8.19;100.00
69306;BME280;56427;51.580;4.656;2023-04-08T05:50:50;102410.66;;;7.95;100.00
69306;BME280;56427;51.580;4.656;2023-04-08T05:53:15;102414.56;;;8.04;100.00
69306;BME280;56427;51.580;4.656;2023-04-08T05:55:41;102412.09;;;8.01;100.00
69306;BME280;56427;51.580;4.656;2023-04-08T05:58:06;102411.00;;;7.87;100.00
69306;BME280;56427;51.580;4.656;2023-04-08T06:00:32;102412.06;;;7.83;100.00
69306;BME280;56427;51.580;4.656;2023-04-08T06:02:58;102420.31;;;7.91;100.00
69306;BME280;56427;51.580;4.656;2023-04-08T06:05:23;102419.38;;;7.92;100.00
69306;BME280;56427;51.580;4.656;2023-04-08T06:07:49;102420.50;;;8.06;100.00
69306;BME280;56427;51.580;4.656;2023-04-08T06:10:14;102426.72;;;8.38;100.00
69306;BME280;56427;51.580;4.656;2023-04-08T06:12:40;102426.53;;;8.78;100.00
69306;BME280;56427;51.580;4.656;2023-04-08T06:15:06;102432.19;;;8.69;100.00
69306;BME280;56427;51.580;4.656;2023-04-08T06:17:32;102435.38;;;8.56;100.00
69306;BME280;56427;51.580;4.656;2023-04-08T06:19:57;102434.69;;;8.34;100.00
69306;BME280;56427;51.580;4.656;2023-04-08T06:22:25;102440.66;;;8.36;100.00
69306;BME280;56427;51.580;4.656;2023-04-08T06:24:50;102441.22;;;8.60;100.00
69306;BME280;56427;51.580;4.656;2023-04-08T06:27:16;102442.28;;;8.73;100.00
69306;BME280;56427;51.580;4.656;2023-04-08T06:29:41;102441.31;;;8.76;100.00
69306;BME280;56427;51.580;4.656;2023-04-08T06:32:06;102449.53;;;8.66;100.00
69306;BME280;56427;51.580;4.656;2023-04-08T06:34:32;102455.09;;;8.40;100.00
69306;BME280;56427;51.580;4.656;2023-04-08T06:36:57;102456.53;;;8.64;100.00
69306;BME280;56427;51.580;4.656;2023-04-08T06:39:23;102459.47;;;8.57;100.00
69306;BME280;56427;51.580;4.656;2023-04-08T06:41:48;102463.16;;;8.53;100.00
69306;BME280;56427;51.580;4.656;2023-04-08T06:44:14;102464.91;;;8.70;100.00
69306;BME280;56427;51.580;4.656;2023-04-08T06:46:39;102461.97;;;8.41;100.00
69306;BME280;56427;51.580;4.656;2023-04-08T06:49:05;102470.97;;;8.32;100.00
69306;BME280;56427;51.580;4.656;2023-04-08T06:51:31;102472.66;;;8.33;100.00
69306;BME280;56427;51.580;4.656;2023-04-08T06:53:57;102470.75;;;8.37;100.00
69306;BME280;56427;51.580;4.656;2023-04-08T06:56:22;102468.88;;;8.40;100.00
69306;BME280;56427;51.580;4.656;2023-04-08T06:58:50;102467.28;;;8.38;100.00
69306;BME280;56427;51.580;4.656;2023-04-08T07:01:16;102467.72;;;8.65;100.00
69306;BME280;56427;51.580;4.656;2023-04-08T07:03:41;102473.28;;;8.57;100.00
69306;BME280;56427;51.580;4.656;2023-04-08T07:06:06;102470.94;;;8.70;100.00
69306;BME280;56427;51.580;4.656;2023-04-08T07:08:32;102475.13;;;8.90;100.00
69306;BME280;56427;51.580;4.656;2023-04-08T07:10:57;102479.16;;;8.78;100.00
69306;BME280;56427;51.580;4.656;2023-04-08T07:13:22;102482.66;;;8.95;100.00
69306;BME280;56427;51.580;4.656;2023-04-08T07:15:48;102483.19;;;8.84;100.00
69306;BME280;56427;51.580;4.656;2023-04-08T07:18:13;102489.84;;;8.53;100.00
69306;BME280;56427;51.580;4.656;2023-04-08T07:20:39;102491.63;;;8.53;100.00
69306;BME280;56427;51.580;4.656;2023-04-08T07:23:06;102493.13;;;8.57;100.00
69306;BME280;56427;51.580;4.656;2023-04-08T07:25:32;102490.84;;;8.51;100.00
69306;BME280;56427;51.580;4.656;2023-04-08T07:27:59;102489.06;;;8.70;100.00
69306;BME280;56427;51.580;4.656;2023-04-08T07:30:24;102495.97;;;8.70;100.00
69306;BME280;56427;51.580;4.656;2023-04-08T07:32:50;102511.97;;;8.78;100.00
69306;BME280;56427;51.580;4.656;2023-04-08T07:35:15;102509.91;;;8.67;100.00
69306;BME280;56427;51.580;4.656;2023-04-08T07:37:48;102514.50;;;8.43;100.00
69306;BME280;56427;51.580;4.656;2023-04-08T07:40:13;102510.53;;;8.90;100.00
69306;BME280;56427;51.580;4.656;2023-04-08T07:42:39;102514.19;;;8.86;100.00
69306;BME280;56427;51.580;4.656;2023-04-08T07:45:04;102514.88;;;8.89;100.00
69306;BME280;56427;51.580;4.656;2023-04-08T07:47:30;102517.13;;;8.78;100.00
69306;BME280;56427;51.580;4.656;2023-04-08T07:49:55;102514.03;;;8.89;100.00
69306;BME280;56427;51.580;4.656;2023-04-08T07:52:21;102520.03;;;8.89;100.00
69306;BME280;56427;51.580;4.656;2023-04-08T07:54:46;102525.47;;;9.19;100.00
69306;BME280;56427;51.580;4.656;2023-04-08T07:57:11;102527.66;;;9.27;100.00
69306;BME280;56427;51.580;4.656;2023-04-08T07:59:37;102525.84;;;9.63;100.00
69306;BME280;56427;51.580;4.656;2023-04-08T08:02:02;102532.81;;;9.45;100.00
69306;BME280;56427;51.580;4.656;2023-04-08T08:04:28;102520.47;;;9.32;100.00
69306;BME280;56427;51.580;4.656;2023-04-08T08:06:53;102527.19;;;9.36;100.00
69306;BME280;56427;51.580;4.656;2023-04-08T08:09:18;102526.59;;;9.31;100.00
69306;BME280;56427;51.580;4.656;2023-04-08T08:11:44;102526.00;;;9.26;100.00
69306;BME280;56427;51.580;4.656;2023-04-08T08:14:10;102526.81;;;9.27;100.00
69306;BME280;56427;51.580;4.656;2023-04-08T08:16:37;102527.59;;;9.11;100.00
69306;BME280;56427;51.580;4.656;2023-04-08T08:19:03;102534.59;;;9.44;100.00
69306;BME280;56427;51.580;4.656;2023-04-08T08:21:31;102535.25;;;9.81;100.00
69306;BME280;56427;51.580;4.656;2023-04-08T08:23:57;102546.91;;;9.56;100.00
69306;BME280;56427;51.580;4.656;2023-04-08T08:26:23;102532.63;;;9.65;100.00
69306;BME280;56427;51.580;4.656;2023-04-08T08:28:49;102536.69;;;9.53;100.00
69306;BME280;56427;51.580;4.656;2023-04-08T08:31:15;102536.03;;;8.97;100.00
69306;BME280;56427;51.580;4.656;2023-04-08T08:33:40;102541.84;;;9.20;100.00
69306;BME280;56427;51.580;4.656;2023-04-08T08:36:06;102554.00;;;9.53;100.00
69306;BME280;56427;51.580;4.656;2023-04-08T08:38:32;102550.47;;;9.71;100.00
69306;BME280;56427;51.580;4.656;2023-04-08T08:40:59;102547.94;;;9.70;100.00
69306;BME280;56427;51.580;4.656;2023-04-08T08:43:25;102561.19;;;9.48;100.00
69306;BME280;56427;51.580;4.656;2023-04-08T08:45:51;102567.91;;;9.85;100.00
69306;BME280;56427;51.580;4.656;2023-04-08T08:48:17;102565.03;;;9.74;100.00
69306;BME280;56427;51.580;4.656;2023-04-08T08:50:43;102564.81;;;9.61;100.00
69306;BME280;56427;51.580;4.656;2023-04-08T08:53:14;102570.53;;;9.68;100.00
69306;BME280;56427;51.580;4.656;2023-04-08T08:55:40;102562.97;;;9.63;100.00
69306;BME280;56427;51.580;4.656;2023-04-08T08:58:06;102562.88;;;9.82;100.00
69306;BME280;56427;51.580;4.656;2023-04-08T09:00:36;102548.91;;;9.85;100.00
69306;BME280;56427;51.580;4.656;2023-04-08T09:03:21;102567.75;;;10.04;100.00
69306;BME280;56427;51.580;4.656;2023-04-08T09:05:51;102572.91;;;9.88;100.00
69306;BME280;56427;51.580;4.656;2023-04-08T09:08:35;102574.03;;;10.16;100.00
69306;BME280;56427;51.580;4.656;2023-04-08T09:11:15;102570.97;;;10.25;100.00
69306;BME280;56427;51.580;4.656;2023-04-08T09:13:42;102584.94;;;10.07;100.00
69306;BME280;56427;51.580;4.656;2023-04-08T09:16:10;102576.63;;;10.00;100.00
69306;BME280;56427;51.580;4.656;2023-04-08T09:18:37;102577.47;;;10.01;100.00
69306;BME280;56427;51.580;4.656;2023-04-08T09:21:09;102585.34;;;9.82;100.00
69306;BME280;56427;51.580;4.656;2023-04-08T09:26:15;102586.81;;;9.54;100.00
69306;BME280;56427;51.580;4.656;2023-04-08T09:28:43;102590.44;;;10.01;100.00
69306;BME280;56427;51.580;4.656;2023-04-08T09:31:25;102581.22;;;10.11;100.00
69306;BME280;56427;51.580;4.656;2023-04-08T09:33:56;102589.00;;;10.60;100.00
69306;BME280;56427;51.580;4.656;2023-04-08T09:36:21;102591.88;;;9.73;100.00
69306;BME280;56427;51.580;4.656;2023-04-08T09:38:47;102588.91;;;9.63;100.00
69306;BME280;56427;51.580;4.656;2023-04-08T09:41:14;102586.47;;;9.60;100.00
69306;BME280;56427;51.580;4.656;2023-04-08T09:43:49;102595.28;;;9.73;100.00
69306;BME280;56427;51.580;4.656;2023-04-08T09:46:18;102595.03;;;9.62;100.00
69306;BME280;56427;51.580;4.656;2023-04-08T09:48:57;102590.38;;;9.16;100.00
69306;BME280;56427;51.580;4.656;2023-04-08T09:51:28;102601.44;;;9.88;100.00
69306;BME280;56427;51.580;4.656;2023-04-08T09:54:02;102589.25;;;10.06;100.00
69306;BME280;56427;51.580;4.656;2023-04-08T09:56:38;102589.00;;;9.95;100.00
69306;BME280;56427;51.580;4.656;2023-04-08T09:59:13;102597.91;;;10.07;100.00
69306;BME280;56427;51.580;4.656;2023-04-08T10:01:45;102591.00;;;10.55;100.00
69306;BME280;56427;51.580;4.656;2023-04-08T10:04:15;102589.66;;;10.32;100.00
69306;BME280;56427;51.580;4.656;2023-04-08T10:06:43;102592.03;;;10.53;100.00
69306;BME280;56427;51.580;4.656;2023-04-08T10:09:09;102589.94;;;10.59;100.00
69306;BME280;56427;51.580;4.656;2023-04-08T10:11:35;102585.09;;;10.04;100.00
69306;BME280;56427;51.580;4.656;2023-04-08T10:14:01;102604.38;;;9.12;100.00
69306;BME280;56427;51.580;4.656;2023-04-08T10:16:27;102597.88;;;8.86;100.00
69306;BME280;56427;51.580;4.656;2023-04-08T10:18:54;102606.22;;;9.45;100.00
69306;BME280;56427;51.580;4.656;2023-04-08T10:21:36;102601.72;;;9.14;100.00
69306;BME280;56427;51.580;4.656;2023-04-08T10:24:06;102599.94;;;9.67;100.00
69306;BME280;56427;51.580;4.656;2023-04-08T10:26:34;102596.59;;;9.65;100.00
69306;BME280;56427;51.580;4.656;2023-04-08T10:31:49;102606.75;;;9.52;100.00
69306;BME280;56427;51.580;4.656;2023-04-08T10:34:22;102601.78;;;9.98;100.00
69306;BME280;56427;51.580;4.656;2023-04-08T10:36:52;102593.69;;;10.04;100.00
69306;BME280;56427;51.580;4.656;2023-04-08T10:39:19;102596.00;;;10.26;100.00
69306;BME280;56427;51.580;4.656;2023-04-08T10:41:47;102603.25;;;10.04;100.00
69306;BME280;56427;51.580;4.656;2023-04-08T10:44:21;102595.13;;;9.76;100.00
69306;BME280;56427;51.580;4.656;2023-04-08T10:46:48;102600.44;;;9.91;100.00
69306;BME280;56427;51.580;4.656;2023-04-08T10:49:14;102611.47;;;9.61;100.00
69306;BME280;56427;51.580;4.656;2023-04-08T10:51:41;102605.59;;;10.08;100.00
69306;BME280;56427;51.580;4.656;2023-04-08T10:54:15;102599.53;;;10.57;100.00
69306;BME280;56427;51.580;4.656;2023-04-08T10:56:46;102599.19;;;10.79;100.00
69306;BME280;56427;51.580;4.656;2023-04-08T10:59:12;102604.16;;;10.36;100.00
69306;BME280;56427;51.580;4.656;2023-04-08T11:01:41;102604.59;;;11.07;100.00
69306;BME280;56427;51.580;4.656;2023-04-08T11:04:16;102591.09;;;11.00;100.00
69306;BME280;56427;51.580;4.656;2023-04-08T11:06:43;102603.06;;;11.18;100.00
69306;BME280;56427;51.580;4.656;2023-04-08T11:09:10;102598.88;;;11.16;100.00
69306;BME280;56427;51.580;4.656;2023-04-08T11:11:36;102594.97;;;11.53;100.00
69306;BME280;56427;51.580;4.656;2023-04-08T11:14:02;102597.06;;;11.91;100.00
69306;BME280;56427;51.580;4.656;2023-04-08T11:16:28;102588.84;;;12.26;100.00
69306;BME280;56427;51.580;4.656;2023-04-08T11:18:54;102589.41;;;12.31;100.00
69306;BME280;56427;51.580;4.656;2023-04-08T11:21:22;102589.41;;;12.31;100.00
69306;BME280;56427;51.580;4.656;2023-04-08T11:23:51;102586.31;;;12.39;100.00
69306;BME280;56427;51.580;4.656;2023-04-08T11:26:18;102588.84;;;12.26;100.00
69306;BME280;56427;51.580;4.656;2023-04-08T11:28:44;102577.53;;;11.70;100.00
69306;BME280;56427;51.580;4.656;2023-04-08T11:31:11;102579.09;;;11.87;100.00
69306;BME280;56427;51.580;4.656;2023-04-08T11:33:37;102583.06;;;12.63;100.00
69306;BME280;56427;51.580;4.656;2023-04-08T11:36:11;102571.13;;;12.04;100.00
69306;BME280;56427;51.580;4.656;2023-04-08T11:38:38;102570.25;;;12.60;100.00
69306;BME280;56427;51.580;4.656;2023-04-08T11:41:05;102574.78;;;13.11;100.00
69306;BME280;56427;51.580;4.656;2023-04-08T11:43:30;102576.53;;;13.37;100.00
69306;BME280;56427;51.580;4.656;2023-04-08T11:45:56;102570.88;;;13.69;100.00
69306;BME280;56427;51.580;4.656;2023-04-08T11:48:21;102576.19;;;13.93;100.00
69306;BME280;56427;51.580;4.656;2023-04-08T11:51:01;102568.66;;;13.24;100.00
69306;BME280;56427;51.580;4.656;2023-04-08T11:53:27;102583.25;;;13.27;100.00
69306;BME280;56427;51.580;4.656;2023-04-08T11:55:53;102573.78;;;13.52;100.00
69306;BME280;56427;51.580;4.656;2023-04-08T11:58:20;102569.19;;;13.68;100.00
69306;BME280;56427;51.580;4.656;2023-04-08T12:00:45;102570.41;;;13.11;100.00
69306;BME280;56427;51.580;4.656;2023-04-08T12:03:11;102571.16;;;14.03;100.00
69306;BME280;56427;51.580;4.656;2023-04-08T12:05:38;102567.31;;;14.81;100.00
69306;BME280;56427;51.580;4.656;2023-04-08T12:08:03;102560.31;;;14.58;100.00
69306;BME280;56427;51.580;4.656;2023-04-08T12:10:29;102570.22;;;14.41;100.00
69306;BME280;56427;51.580;4.656;2023-04-08T12:12:54;102555.44;;;13.79;100.00
69306;BME280;56427;51.580;4.656;2023-04-08T12:15:19;102551.78;;;13.82;100.00
69306;BME280;56427;51.580;4.656;2023-04-08T12:17:45;102560.53;;;13.42;100.00
69306;BME280;56427;51.580;4.656;2023-04-08T12:20:11;102544.28;;;13.38;100.00
69306;BME280;56427;51.580;4.656;2023-04-08T12:22:37;102546.31;;;13.85;100.00
69306;BME280;56427;51.580;4.656;2023-04-08T12:25:03;102547.00;;;14.12;100.00
69306;BME280;56427;51.580;4.656;2023-04-08T12:27:29;102545.13;;;14.39;100.00
69306;BME280;56427;51.580;4.656;2023-04-08T12:29:54;102544.75;;;14.32;100.00
69306;BME280;56427;51.580;4.656;2023-04-08T12:32:20;102542.63;;;14.37;100.00
69306;BME280;56427;51.580;4.656;2023-04-08T12:34:46;102546.75;;;14.52;100.00
69306;BME280;56427;51.580;4.656;2023-04-08T12:37:11;102545.47;;;14.58;100.00
69306;BME280;56427;51.580;4.656;2023-04-08T12:39:37;102543.94;;;14.91;100.00
69306;BME280;56427;51.580;4.656;2023-04-08T12:42:06;102547.34;;;14.56;100.00
69306;BME280;56427;51.580;4.656;2023-04-08T12:44:31;102540.75;;;14.63;100.00
69306;BME280;56427;51.580;4.656;2023-04-08T12:46:57;102539.84;;;14.51;100.00
69306;BME280;56427;51.580;4.656;2023-04-08T12:49:23;102541.63;;;14.51;100.00
69306;BME280;56427;51.580;4.656;2023-04-08T12:51:49;102537.03;;;14.54;100.00
69306;BME280;56427;51.580;4.656;2023-04-08T12:54:14;102526.41;;;15.16;100.00